Craigsville, WV

10:20 AM EST on February 11, 2016 (GMT -0500)
Summersville | | Change Station
CLOSE
Current Station
Personal Weather Station
Location: Summersville, WV
Elevation: 1932 ft
Nearby Weather Stations

Elev 1932 ft 38.30 °N, 80.84 °W | Updated 5 minutes ago

Mostly Cloudy
Mostly Cloudy
14.0 °F
Feels Like 7 °F
N
4.3
Wind Variable Wind from West

Today
High -- | Low -- °F
--% Chance of Precip.
Yesterday
High -- | Low -- °F
Precip. -- in
Pressure 30.10 in
Visibility 5.0 miles
Clouds Scattered Clouds 2000 ft
Mostly Cloudy 2700 ft
Mostly Cloudy 3100 ft
Windchill 7 °F
Dew Point 5 °F
Humidity 66%
Rainfall 0.00 in
Snow Depth Not available.
7:18 AM 5:55 PM
Waxing Crescent, 12% visible
METAR KLWB 111515Z AUTO 32007G17KT 5SM -SN SCT020 BKN027 BKN031 M09/M16 A3010 RMK AO2 T10871156
Pressure 30.10 in
Visibility 5.0 miles
Clouds Scattered Clouds 2000 ft
Mostly Cloudy 2700 ft
Mostly Cloudy 3100 ft
Windchill 7 °F
Dew Point 5 °F
Humidity 66%
Rainfall 0.00 in
Snow Depth Not available.
7:18 AM 5:55 PM
Waxing Crescent, 12% visible
METAR KLWB 111515Z AUTO 32007G17KT 5SM -SN SCT020 BKN027 BKN031 M09/M16 A3010 RMK AO2 T10871156

10-Day Weather Forecast

Almanac

Astronomy

Feb. 11, 2016 Rise Set
Actual Time
Civil Twilight
Nautical Twilight
Astronomical Twilight
Moon
Length of Visible Light
Length of Day
Tomorrow will be .
, % of the Moon is Illuminated

Today's Extremes

State Highs State Lows

Community

WunderPhotos

Upload Photos

1,892,060 photos uploaded!

WunderBlog® & News

Nearby

Air Quality

  Air Quality AQ Index Pollutant
Not available.

Snow Depth

Station Depth Elevation

Earthquake Activity

City Distance Mag. Time & Date
Minimum magnitude displayed is 2.5.

Coastal Water Temperatures

Place Temperature

Stations

Nearby Weather Stations

Station Location Temp. Windchill Dew Point Humidity Wind Precip. Elev Updated Type
                   

Watches & Warnings

There are currently no watches in effect.